sensor_id;sensor_type;location;lat;lon;timestamp;pressure;altitude;pressure_sealevel;temperature;humidity
75913;BME280;64592;52.168;21.040;2023-02-14T00:03:47;101923.34;;;4.48;78.64
75913;BME280;64592;52.168;21.040;2023-02-14T00:08:49;101919.78;;;4.47;79.93
75913;BME280;64592;52.168;21.040;2023-02-14T00:13:53;101932.22;;;4.48;79.30
75913;BME280;64592;52.168;21.040;2023-02-14T00:19:14;101942.03;;;4.48;79.61
75913;BME280;64592;52.168;21.040;2023-02-14T00:24:18;101935.81;;;4.47;79.32
75913;BME280;64592;52.168;21.040;2023-02-14T00:29:23;101935.84;;;4.46;79.24
75913;BME280;64592;52.168;21.040;2023-02-14T00:34:26;101951.97;;;4.43;79.15
75913;BME280;64592;52.168;21.040;2023-02-14T00:39:29;101946.63;;;4.43;79.29
75913;BME280;64592;52.168;21.040;2023-02-14T00:44:30;101953.75;;;4.42;79.17
75913;BME280;64592;52.168;21.040;2023-02-14T00:49:33;101956.50;;;4.38;79.47
75913;BME280;64592;52.168;21.040;2023-02-14T00:54:35;101948.47;;;4.39;79.59
75913;BME280;64592;52.168;21.040;2023-02-14T00:59:37;101950.22;;;4.40;80.08
75913;BME280;64592;52.168;21.040;2023-02-14T01:04:40;101957.34;;;4.40;79.54
75913;BME280;64592;52.168;21.040;2023-02-14T01:09:41;101960.94;;;4.39;79.68
75913;BME280;64592;52.168;21.040;2023-02-14T01:14:43;101940.63;;;4.33;80.53
75913;BME280;64592;52.168;21.040;2023-02-14T01:19:46;101939.75;;;4.31;80.52
75913;BME280;64592;52.168;21.040;2023-02-14T01:24:48;101952.31;;;4.27;80.96
75913;BME280;64592;52.168;21.040;2023-02-14T01:29:49;101950.69;;;4.22;81.14
75913;BME280;64592;52.168;21.040;2023-02-14T01:34:52;101961.38;;;4.22;80.81
75913;BME280;64592;52.168;21.040;2023-02-14T01:39:54;101956.19;;;4.14;81.26
75913;BME280;64592;52.168;21.040;2023-02-14T01:44:59;101949.97;;;4.14;81.82
75913;BME280;64592;52.168;21.040;2023-02-14T01:50:06;101952.56;;;4.17;82.21
75913;BME280;64592;52.168;21.040;2023-02-14T01:55:12;101945.56;;;4.13;82.09
75913;BME280;64592;52.168;21.040;2023-02-14T02:00:16;101961.72;;;4.07;82.69
75913;BME280;64592;52.168;21.040;2023-02-14T02:05:40;101953.78;;;4.04;82.76
75913;BME280;64592;52.168;21.040;2023-02-14T02:10:45;101943.06;;;4.05;82.79
75913;BME280;64592;52.168;21.040;2023-02-14T02:16:09;101960.09;;;4.00;83.05
75913;BME280;64592;52.168;21.040;2023-02-14T02:21:44;101961.91;;;3.98;83.41
75913;BME280;64592;52.168;21.040;2023-02-14T02:27:23;101961.97;;;3.95;83.38
75913;BME280;64592;52.168;21.040;2023-02-14T02:32:37;101967.31;;;3.95;82.91
75913;BME280;64592;52.168;21.040;2023-02-14T02:37:52;101969.97;;;3.95;83.59
75913;BME280;64592;52.168;21.040;2023-02-14T02:43:06;101969.97;;;3.95;83.50
75913;BME280;64592;52.168;21.040;2023-02-14T02:48:16;101983.31;;;3.95;83.16
75913;BME280;64592;52.168;21.040;2023-02-14T02:53:27;101976.31;;;3.90;82.90
75913;BME280;64592;52.168;21.040;2023-02-14T02:58:35;101983.44;;;3.88;83.74
75913;BME280;64592;52.168;21.040;2023-02-14T03:03:38;101973.78;;;3.84;84.05
75913;BME280;64592;52.168;21.040;2023-02-14T03:09:10;101982.72;;;3.82;82.95
75913;BME280;64592;52.168;21.040;2023-02-14T03:14:18;101986.38;;;3.78;82.95
75913;BME280;64592;52.168;21.040;2023-02-14T03:19:28;101987.34;;;3.72;83.70
75913;BME280;64592;52.168;21.040;2023-02-14T03:24:39;101991.00;;;3.68;83.91
75913;BME280;64592;52.168;21.040;2023-02-14T03:29:54;101998.16;;;3.66;84.20
75913;BME280;64592;52.168;21.040;2023-02-14T03:35:04;102003.47;;;3.66;84.53
75913;BME280;64592;52.168;21.040;2023-02-14T03:40:12;102000.81;;;3.66;83.77
75913;BME280;64592;52.168;21.040;2023-02-14T03:45:21;102001.75;;;3.64;83.86
75913;BME280;64592;52.168;21.040;2023-02-14T03:50:26;101985.81;;;3.62;84.66
75913;BME280;64592;52.168;21.040;2023-02-14T03:55:35;101991.97;;;3.64;84.27
75913;BME280;64592;52.168;21.040;2023-02-14T04:00:41;101989.50;;;3.55;83.83
75913;BME280;64592;52.168;21.040;2023-02-14T04:05:45;101986.00;;;3.53;84.28
75913;BME280;64592;52.168;21.040;2023-02-14T04:10:53;102003.75;;;3.54;84.53
75913;BME280;64592;52.168;21.040;2023-02-14T04:15:57;101983.34;;;3.51;84.58
75913;BME280;64592;52.168;21.040;2023-02-14T04:20:58;101994.88;;;3.52;84.21
75913;BME280;64592;52.168;21.040;2023-02-14T04:26:02;101988.69;;;3.51;83.94
75913;BME280;64592;52.168;21.040;2023-02-14T04:31:05;101997.66;;;3.47;84.95
75913;BME280;64592;52.168;21.040;2023-02-14T04:36:07;102006.47;;;3.51;84.87
75913;BME280;64592;52.168;21.040;2023-02-14T04:41:10;102020.66;;;3.51;84.96
75913;BME280;64592;52.168;21.040;2023-02-14T04:46:12;102023.34;;;3.50;84.67
75913;BME280;64592;52.168;21.040;2023-02-14T04:51:13;102026.09;;;3.47;84.88
75913;BME280;64592;52.168;21.040;2023-02-14T04:56:16;102025.19;;;3.48;84.75
75913;BME280;64592;52.168;21.040;2023-02-14T05:01:18;102028.84;;;3.41;85.44
75913;BME280;64592;52.168;21.040;2023-02-14T05:06:20;102038.66;;;3.40;85.55
75913;BME280;64592;52.168;21.040;2023-02-14T05:11:23;102047.50;;;3.42;85.25
75913;BME280;64592;52.168;21.040;2023-02-14T05:16:24;102048.44;;;3.40;85.48
75913;BME280;64592;52.168;21.040;2023-02-14T05:21:26;102051.06;;;3.41;85.46
75913;BME280;64592;52.168;21.040;2023-02-14T05:26:33;102043.06;;;3.41;85.13
75913;BME280;64592;52.168;21.040;2023-02-14T05:31:35;102058.19;;;3.41;85.78
75913;BME280;64592;52.168;21.040;2023-02-14T05:36:37;102068.06;;;3.36;85.82
75913;BME280;64592;52.168;21.040;2023-02-14T05:41:40;102055.63;;;3.35;85.89
75913;BME280;64592;52.168;21.040;2023-02-14T05:46:42;102053.81;;;3.37;85.25
75913;BME280;64592;52.168;21.040;2023-02-14T05:51:43;102063.50;;;3.41;85.59
75913;BME280;64592;52.168;21.040;2023-02-14T05:56:46;102055.59;;;3.38;85.67
75913;BME280;64592;52.168;21.040;2023-02-14T06:01:48;102062.78;;;3.33;86.26
75913;BME280;64592;52.168;21.040;2023-02-14T06:06:50;102064.59;;;3.32;86.03
75913;BME280;64592;52.168;21.040;2023-02-14T06:11:53;102070.81;;;3.31;86.41
75913;BME280;64592;52.168;21.040;2023-02-14T06:16:54;102076.16;;;3.31;86.25
75913;BME280;64592;52.168;21.040;2023-02-14T06:21:56;102080.69;;;3.25;85.90
75913;BME280;64592;52.168;21.040;2023-02-14T06:26:59;102096.63;;;3.28;86.21
75913;BME280;64592;52.168;21.040;2023-02-14T06:32:01;102090.41;;;3.27;86.18
75913;BME280;64592;52.168;21.040;2023-02-14T06:37:06;102096.56;;;3.31;85.53
75913;BME280;64592;52.168;21.040;2023-02-14T06:42:09;102094.81;;;3.30;86.33
75913;BME280;64592;52.168;21.040;2023-02-14T06:47:11;102099.28;;;3.28;86.36
75913;BME280;64592;52.168;21.040;2023-02-14T06:52:12;102092.25;;;3.25;86.57
75913;BME280;64592;52.168;21.040;2023-02-14T06:57:15;102093.06;;;3.27;86.77
75913;BME280;64592;52.168;21.040;2023-02-14T07:02:17;102089.59;;;3.24;85.71
75913;BME280;64592;52.168;21.040;2023-02-14T07:07:19;102083.44;;;3.20;87.26
75913;BME280;64592;52.168;21.040;2023-02-14T07:12:22;102093.16;;;3.23;86.36
75913;BME280;64592;52.168;21.040;2023-02-14T07:17:24;102099.41;;;3.22;86.17
75913;BME280;64592;52.168;21.040;2023-02-14T07:22:25;102105.59;;;3.22;85.92
75913;BME280;64592;52.168;21.040;2023-02-14T07:27:29;102110.91;;;3.24;85.92
75913;BME280;64592;52.168;21.040;2023-02-14T07:32:30;102111.81;;;3.23;86.45
75913;BME280;64592;52.168;21.040;2023-02-14T07:37:33;102120.72;;;3.22;86.65
75913;BME280;64592;52.168;21.040;2023-02-14T07:42:36;102124.28;;;3.19;86.64
75913;BME280;64592;52.168;21.040;2023-02-14T07:47:37;102127.16;;;3.08;87.62
75913;BME280;64592;52.168;21.040;2023-02-14T07:52:39;102127.97;;;3.12;86.82
75913;BME280;64592;52.168;21.040;2023-02-14T07:57:42;102141.22;;;3.17;86.96
75913;BME280;64592;52.168;21.040;2023-02-14T08:02:44;102142.09;;;3.19;86.72
75913;BME280;64592;52.168;21.040;2023-02-14T08:07:45;102150.91;;;3.22;86.25
75913;BME280;64592;52.168;21.040;2023-02-14T08:12:48;102158.88;;;3.25;86.23
75913;BME280;64592;52.168;21.040;2023-02-14T08:17:59;102168.63;;;3.25;86.32
75913;BME280;64592;52.168;21.040;2023-02-14T08:23:01;102165.06;;;3.26;86.17
75913;BME280;64592;52.168;21.040;2023-02-14T08:28:04;102167.63;;;3.32;86.18
75913;BME280;64592;52.168;21.040;2023-02-14T08:33:06;102161.31;;;3.37;86.59
75913;BME280;64592;52.168;21.040;2023-02-14T08:38:08;102153.28;;;3.39;85.80
75913;BME280;64592;52.168;21.040;2023-02-14T08:43:12;102173.75;;;3.37;86.27
75913;BME280;64592;52.168;21.040;2023-02-14T08:48:14;102168.41;;;3.38;85.92
75913;BME280;64592;52.168;21.040;2023-02-14T08:53:15;102171.06;;;3.40;85.35
75913;BME280;64592;52.168;21.040;2023-02-14T08:58:19;102170.97;;;3.44;85.49
75913;BME280;64592;52.168;21.040;2023-02-14T09:03:20;102170.06;;;3.45;85.21
75913;BME280;64592;52.168;21.040;2023-02-14T09:08:22;102168.22;;;3.49;85.44
75913;BME280;64592;52.168;21.040;2023-02-14T09:13:25;102169.94;;;3.53;84.45
75913;BME280;64592;52.168;21.040;2023-02-14T09:18:27;102178.84;;;3.52;85.13
75913;BME280;64592;52.168;21.040;2023-02-14T09:23:28;102182.47;;;3.48;85.02
75913;BME280;64592;52.168;21.040;2023-02-14T09:28:32;102175.31;;;3.50;85.10
75913;BME280;64592;52.168;21.040;2023-02-14T09:33:34;102177.03;;;3.54;85.01
75913;BME280;64592;52.168;21.040;2023-02-14T09:38:35;102182.25;;;3.60;85.36
75913;BME280;64592;52.168;21.040;2023-02-14T09:43:46;102172.50;;;3.58;84.75
75913;BME280;64592;52.168;21.040;2023-02-14T09:48:52;102183.16;;;3.59;85.17
75913;BME280;64592;52.168;21.040;2023-02-14T09:53:59;102178.66;;;3.63;84.23
75913;BME280;64592;52.168;21.040;2023-02-14T09:59:08;102195.47;;;3.66;85.15
75913;BME280;64592;52.168;21.040;2023-02-14T10:04:22;102191.91;;;3.67;84.77
75913;BME280;64592;52.168;21.040;2023-02-14T10:09:49;102197.19;;;3.70;84.64
75913;BME280;64592;52.168;21.040;2023-02-14T10:14:56;102186.47;;;3.72;85.02
75913;BME280;64592;52.168;21.040;2023-02-14T10:20:03;102198.84;;;3.77;84.80
75913;BME280;64592;52.168;21.040;2023-02-14T10:25:13;102185.47;;;3.79;84.02
75913;BME280;64592;52.168;21.040;2023-02-14T10:30:21;102185.56;;;3.73;84.80
75913;BME280;64592;52.168;21.040;2023-02-14T10:35:30;102178.44;;;3.73;84.71
75913;BME280;64592;52.168;21.040;2023-02-14T10:40:48;102181.06;;;3.76;84.19
75913;BME280;64592;52.168;21.040;2023-02-14T10:46:05;102186.34;;;3.79;84.36
75913;BME280;64592;52.168;21.040;2023-02-14T10:51:15;102187.16;;;3.84;84.37
75913;BME280;64592;52.168;21.040;2023-02-14T10:56:21;102172.88;;;3.85;84.09
75913;BME280;64592;52.168;21.040;2023-02-14T11:01:27;102177.28;;;3.89;83.96
75913;BME280;64592;52.168;21.040;2023-02-14T11:06:29;102171.94;;;3.89;83.05
75913;BME280;64592;52.168;21.040;2023-02-14T11:11:36;102171.91;;;3.93;83.70
75913;BME280;64592;52.168;21.040;2023-02-14T11:16:40;102172.69;;;3.96;83.58
75913;BME280;64592;52.168;21.040;2023-02-14T11:21:43;102178.00;;;3.99;83.37
75913;BME280;64592;52.168;21.040;2023-02-14T11:26:46;102168.16;;;4.01;82.86
75913;BME280;64592;52.168;21.040;2023-02-14T11:31:50;102176.06;;;4.07;83.23
75913;BME280;64592;52.168;21.040;2023-02-14T11:36:52;102159.09;;;4.10;83.05
75913;BME280;64592;52.168;21.040;2023-02-14T11:41:56;102167.09;;;4.10;82.88
75913;BME280;64592;52.168;21.040;2023-02-14T11:47:17;102157.22;;;4.15;83.06
75913;BME280;64592;52.168;21.040;2023-02-14T11:52:19;102154.28;;;4.28;82.37
75913;BME280;64592;52.168;21.040;2023-02-14T11:57:27;102152.34;;;4.37;82.39
75913;BME280;64592;52.168;21.040;2023-02-14T12:02:38;102147.66;;;4.46;81.74
75913;BME280;64592;52.168;21.040;2023-02-14T12:07:42;102142.16;;;4.52;81.21
75913;BME280;64592;52.168;21.040;2023-02-14T12:12:50;102136.03;;;4.49;81.53
75913;BME280;64592;52.168;21.040;2023-02-14T12:17:58;102134.38;;;4.43;82.10
75913;BME280;64592;52.168;21.040;2023-02-14T12:23:05;102134.25;;;4.49;82.37
75913;BME280;64592;52.168;21.040;2023-02-14T12:28:13;102135.91;;;4.55;82.28
75913;BME280;64592;52.168;21.040;2023-02-14T12:33:19;102124.34;;;4.54;82.13
75913;BME280;64592;52.168;21.040;2023-02-14T12:38:29;102125.00;;;4.64;81.89
75913;BME280;64592;52.168;21.040;2023-02-14T12:43:44;102116.84;;;4.70;81.41
75913;BME280;64592;52.168;21.040;2023-02-14T12:49:05;102122.09;;;4.75;81.17
75913;BME280;64592;52.168;21.040;2023-02-14T12:54:27;102118.34;;;4.82;80.72
75913;BME280;64592;52.168;21.040;2023-02-14T12:59:36;102126.38;;;4.82;81.09
75913;BME280;64592;52.168;21.040;2023-02-14T13:04:47;102117.53;;;4.80;81.42
75913;BME280;64592;52.168;21.040;2023-02-14T13:09:58;102120.25;;;4.77;81.10
75913;BME280;64592;52.168;21.040;2023-02-14T13:15:17;102117.69;;;4.74;81.43
75913;BME280;64592;52.168;21.040;2023-02-14T13:20:47;102122.19;;;4.72;81.38
75913;BME280;64592;52.168;21.040;2023-02-14T13:25:55;102124.75;;;4.75;80.86
75913;BME280;64592;52.168;21.040;2023-02-14T13:30:59;102130.94;;;4.77;81.20
75913;BME280;64592;52.168;21.040;2023-02-14T13:36:06;102126.47;;;4.79;80.88
75913;BME280;64592;52.168;21.040;2023-02-14T13:41:10;102129.13;;;4.79;80.86
75913;BME280;64592;52.168;21.040;2023-02-14T13:46:13;102128.22;;;4.80;80.97
75913;BME280;64592;52.168;21.040;2023-02-14T13:51:18;102129.03;;;4.82;81.14
75913;BME280;64592;52.168;21.040;2023-02-14T13:56:31;102130.81;;;4.83;81.39
75913;BME280;64592;52.168;21.040;2023-02-14T14:01:37;102122.03;;;4.78;81.34
75913;BME280;64592;52.168;21.040;2023-02-14T14:07:16;102116.75;;;4.75;80.97
75913;BME280;64592;52.168;21.040;2023-02-14T14:12:43;102114.91;;;4.78;82.15
75913;BME280;64592;52.168;21.040;2023-02-14T14:17:46;102117.59;;;4.77;81.52
75913;BME280;64592;52.168;21.040;2023-02-14T14:22:52;102118.50;;;4.76;82.25
75913;BME280;64592;52.168;21.040;2023-02-14T14:27:54;102120.25;;;4.77;81.47
75913;BME280;64592;52.168;21.040;2023-02-14T14:33:11;102121.16;;;4.77;82.04
75913;BME280;64592;52.168;21.040;2023-02-14T14:38:15;102128.25;;;4.78;81.98
75913;BME280;64592;52.168;21.040;2023-02-14T14:43:23;102124.56;;;4.82;81.82
75913;BME280;64592;52.168;21.040;2023-02-14T14:48:28;102133.53;;;4.81;82.47
75913;BME280;64592;52.168;21.040;2023-02-14T14:53:36;102134.50;;;4.77;83.30
75913;BME280;64592;52.168;21.040;2023-02-14T14:58:41;102130.06;;;4.76;82.89
75913;BME280;64592;52.168;21.040;2023-02-14T15:03:43;102124.00;;;4.69;84.22
75913;BME280;64592;52.168;21.040;2023-02-14T15:08:47;102125.88;;;4.66;83.17
75913;BME280;64592;52.168;21.040;2023-02-14T15:13:49;102115.22;;;4.64;83.59
75913;BME280;64592;52.168;21.040;2023-02-14T15:18:55;102124.13;;;4.63;84.40
75913;BME280;64592;52.168;21.040;2023-02-14T15:24:00;102125.97;;;4.60;84.12
75913;BME280;64592;52.168;21.040;2023-02-14T15:29:04;102133.16;;;4.58;84.24
75913;BME280;64592;52.168;21.040;2023-02-14T15:34:06;102131.44;;;4.55;84.45
75913;BME280;64592;52.168;21.040;2023-02-14T15:39:12;102136.78;;;4.55;83.82
75913;BME280;64592;52.168;21.040;2023-02-14T15:44:18;102139.47;;;4.54;84.75
75913;BME280;64592;52.168;21.040;2023-02-14T15:49:23;102133.25;;;4.53;84.69
75913;BME280;64592;52.168;21.040;2023-02-14T15:54:34;102131.63;;;4.46;84.61
75913;BME280;64592;52.168;21.040;2023-02-14T15:59:40;102133.38;;;4.47;85.04
75913;BME280;64592;52.168;21.040;2023-02-14T16:04:43;102147.63;;;4.48;85.00
75913;BME280;64592;52.168;21.040;2023-02-14T16:09:46;102149.44;;;4.46;84.01
75913;BME280;64592;52.168;21.040;2023-02-14T16:15:00;102145.06;;;4.43;84.38
75913;BME280;64592;52.168;21.040;2023-02-14T16:20:20;102156.66;;;4.42;84.58
75913;BME280;64592;52.168;21.040;2023-02-14T16:25:23;102160.19;;;4.44;84.62
75913;BME280;64592;52.168;21.040;2023-02-14T16:30:25;102157.50;;;4.44;84.19
75913;BME280;64592;52.168;21.040;2023-02-14T16:35:27;102162.03;;;4.41;85.02
75913;BME280;64592;52.168;21.040;2023-02-14T16:40:32;102172.66;;;4.42;84.87
75913;BME280;64592;52.168;21.040;2023-02-14T16:45:33;102172.72;;;4.39;85.30
75913;BME280;64592;52.168;21.040;2023-02-14T16:50:37;102180.00;;;4.31;85.54
75913;BME280;64592;52.168;21.040;2023-02-14T16:55:42;102170.22;;;4.30;85.40
75913;BME280;64592;52.168;21.040;2023-02-14T17:00:43;102171.28;;;4.23;86.48
75913;BME280;64592;52.168;21.040;2023-02-14T17:05:45;102178.44;;;4.21;86.18
75913;BME280;64592;52.168;21.040;2023-02-14T17:10:49;102183.84;;;4.18;85.80
75913;BME280;64592;52.168;21.040;2023-02-14T17:15:51;102184.75;;;4.17;86.26
75913;BME280;64592;52.168;21.040;2023-02-14T17:20:53;102185.63;;;4.17;85.74
75913;BME280;64592;52.168;21.040;2023-02-14T17:25:56;102195.44;;;4.15;86.30
75913;BME280;64592;52.168;21.040;2023-02-14T17:30:58;102190.97;;;4.16;86.51
75913;BME280;64592;52.168;21.040;2023-02-14T17:36:04;102200.84;;;4.14;85.86
75913;BME280;64592;52.168;21.040;2023-02-14T17:41:12;102196.41;;;4.11;86.46
75913;BME280;64592;52.168;21.040;2023-02-14T17:46:14;102201.81;;;4.08;86.04
75913;BME280;64592;52.168;21.040;2023-02-14T17:51:17;102205.34;;;4.09;86.82
75913;BME280;64592;52.168;21.040;2023-02-14T17:56:23;102190.25;;;4.08;86.53
75913;BME280;64592;52.168;21.040;2023-02-14T18:01:26;102198.25;;;4.08;86.68
75913;BME280;64592;52.168;21.040;2023-02-14T18:06:30;102200.06;;;4.07;86.01
75913;BME280;64592;52.168;21.040;2023-02-14T18:11:34;102198.25;;;4.08;86.05
75913;BME280;64592;52.168;21.040;2023-02-14T18:16:37;102186.81;;;4.03;86.81
75913;BME280;64592;52.168;21.040;2023-02-14T18:21:38;102197.50;;;4.01;86.65
75913;BME280;64592;52.168;21.040;2023-02-14T18:26:42;102203.72;;;4.02;86.63
75913;BME280;64592;52.168;21.040;2023-02-14T18:31:44;102202.03;;;3.98;86.91
75913;BME280;64592;52.168;21.040;2023-02-14T18:36:45;102199.41;;;3.93;86.72
75913;BME280;64592;52.168;21.040;2023-02-14T18:41:49;102198.63;;;3.88;86.45
75913;BME280;64592;52.168;21.040;2023-02-14T18:46:50;102197.81;;;3.84;87.15
75913;BME280;64592;52.168;21.040;2023-02-14T18:51:52;102194.28;;;3.84;86.51
75913;BME280;64592;52.168;21.040;2023-02-14T18:56:55;102199.69;;;3.79;86.72
75913;BME280;64592;52.168;21.040;2023-02-14T19:01:57;102199.78;;;3.75;87.24
75913;BME280;64592;52.168;21.040;2023-02-14T19:06:58;102198.94;;;3.71;87.40
75913;BME280;64592;52.168;21.040;2023-02-14T19:12:02;102191.88;;;3.70;86.89
75913;BME280;64592;52.168;21.040;2023-02-14T19:17:04;102195.44;;;3.69;87.55
75913;BME280;64592;52.168;21.040;2023-02-14T19:22:06;102195.44;;;3.68;87.57
75913;BME280;64592;52.168;21.040;2023-02-14T19:27:09;102191.13;;;3.62;87.44
75913;BME280;64592;52.168;21.040;2023-02-14T19:32:10;102201.78;;;3.61;87.55
75913;BME280;64592;52.168;21.040;2023-02-14T19:37:12;102192.06;;;3.58;87.79
75913;BME280;64592;52.168;21.040;2023-02-14T19:42:15;102201.84;;;3.58;88.00
75913;BME280;64592;52.168;21.040;2023-02-14T19:47:17;102209.84;;;3.56;88.31
75913;BME280;64592;52.168;21.040;2023-02-14T19:52:20;102193.84;;;3.56;87.68
75913;BME280;64592;52.168;21.040;2023-02-14T19:57:23;102193.09;;;3.49;87.52
75913;BME280;64592;52.168;21.040;2023-02-14T20:02:25;102201.84;;;3.58;87.65
75913;BME280;64592;52.168;21.040;2023-02-14T20:07:26;102209.94;;;3.53;88.16
75913;BME280;64592;52.168;21.040;2023-02-14T20:12:29;102202.81;;;3.54;88.18
75913;BME280;64592;52.168;21.040;2023-02-14T20:17:31;102199.28;;;3.50;88.38
75913;BME280;64592;52.168;21.040;2023-02-14T20:22:33;102197.53;;;3.49;88.12
75913;BME280;64592;52.168;21.040;2023-02-14T20:27:37;102199.38;;;3.47;88.20
75913;BME280;64592;52.168;21.040;2023-02-14T20:32:38;102191.38;;;3.45;88.25
75913;BME280;64592;52.168;21.040;2023-02-14T20:37:40;102199.41;;;3.44;87.66
75913;BME280;64592;52.168;21.040;2023-02-14T20:42:43;102194.09;;;3.41;87.61
75913;BME280;64592;52.168;21.040;2023-02-14T20:47:46;102195.97;;;3.37;87.92
75913;BME280;64592;52.168;21.040;2023-02-14T20:52:48;102192.53;;;3.31;88.69
75913;BME280;64592;52.168;21.040;2023-02-14T20:57:51;102194.38;;;3.26;88.48
75913;BME280;64592;52.168;21.040;2023-02-14T21:02:53;102193.50;;;3.25;88.59
75913;BME280;64592;52.168;21.040;2023-02-14T21:07:54;102193.53;;;3.22;88.68
75913;BME280;64592;52.168;21.040;2023-02-14T21:12:57;102203.41;;;3.16;88.71
75913;BME280;64592;52.168;21.040;2023-02-14T21:17:59;102206.09;;;3.16;88.83
75913;BME280;64592;52.168;21.040;2023-02-14T21:23:01;102204.34;;;3.11;88.69
75913;BME280;64592;52.168;21.040;2023-02-14T21:28:04;102201.75;;;3.08;88.86
75913;BME280;64592;52.168;21.040;2023-02-14T21:33:06;102200.84;;;3.09;89.03
75913;BME280;64592;52.168;21.040;2023-02-14T21:38:08;102204.41;;;3.10;88.91
75913;BME280;64592;52.168;21.040;2023-02-14T21:43:11;102202.63;;;3.09;88.84
75913;BME280;64592;52.168;21.040;2023-02-14T21:48:12;102211.50;;;3.11;89.10
75913;BME280;64592;52.168;21.040;2023-02-14T21:53:32;102206.97;;;3.16;89.34
75913;BME280;64592;52.168;21.040;2023-02-14T21:58:35;102206.03;;;3.19;89.25
75913;BME280;64592;52.168;21.040;2023-02-14T22:03:37;102206.03;;;3.19;89.18
75913;BME280;64592;52.168;21.040;2023-02-14T22:08:39;102206.88;;;3.21;89.45
75913;BME280;64592;52.168;21.040;2023-02-14T22:13:42;102208.63;;;3.23;89.29
75913;BME280;64592;52.168;21.040;2023-02-14T22:18:44;102205.94;;;3.25;89.31
75913;BME280;64592;52.168;21.040;2023-02-14T22:23:47;102199.66;;;3.29;89.37
75913;BME280;64592;52.168;21.040;2023-02-14T22:28:52;102194.28;;;3.32;88.93
75913;BME280;64592;52.168;21.040;2023-02-14T22:33:55;102198.66;;;3.36;88.93
75913;BME280;64592;52.168;21.040;2023-02-14T22:38:56;102204.81;;;3.39;89.04
75913;BME280;64592;52.168;21.040;2023-02-14T22:44:00;102207.44;;;3.41;88.35
75913;BME280;64592;52.168;21.040;2023-02-14T22:49:02;102196.75;;;3.42;88.68
75913;BME280;64592;52.168;21.040;2023-02-14T22:54:05;102199.41;;;3.44;88.59
75913;BME280;64592;52.168;21.040;2023-02-14T22:59:13;102199.41;;;3.44;89.02
75913;BME280;64592;52.168;21.040;2023-02-14T23:04:16;102198.53;;;3.43;88.74
75913;BME280;64592;52.168;21.040;2023-02-14T23:09:18;102193.16;;;3.45;88.96
75913;BME280;64592;52.168;21.040;2023-02-14T23:14:22;102199.38;;;3.45;88.47
75913;BME280;64592;52.168;21.040;2023-02-14T23:19:42;102197.59;;;3.46;88.53
75913;BME280;64592;52.168;21.040;2023-02-14T23:25:03;102197.59;;;3.46;88.15
75913;BME280;64592;52.168;21.040;2023-02-14T23:30:10;102195.84;;;3.45;88.52
75913;BME280;64592;52.168;21.040;2023-02-14T23:35:12;102190.59;;;3.40;88.50
75913;BME280;64592;52.168;21.040;2023-02-14T23:40:14;102187.84;;;3.43;88.95
75913;BME280;64592;52.168;21.040;2023-02-14T23:45:17;102189.66;;;3.41;88.85
75913;BME280;64592;52.168;21.040;2023-02-14T23:50:39;102193.28;;;3.37;88.64
75913;BME280;64592;52.168;21.040;2023-02-14T23:55:40;102187.97;;;3.36;88.35
